Glasgow, United Kingdom
Current Conditions -  °F | °C
As of 8:20 AM on Thursday 18 Dec 2014 (Local Time) from EGPF Reporting Station
Light Rain Light Rain  
Wind Chill: 50°   Ceiling: 1500
Heat Index: 50°   Visibility: 4mi
Dew Point: 50°   Wind: 9mph
Humidity: 100%   Direction: 280°W
Pressure: 29.32"   Gusts: NA
Location:  55.87°N, 4.26°W
Report Text: EGPF 180820Z 28008KT 240V300 6000 -RA SCT007 SCT010 BKN015 10/10 Q0993 RERA
Loading
Personal Weather Stations






























Interactive Weather Map New forecast layout! Learn more

10-Day Weather Forecast

Advertisements
Track Severe Weather on mobile